Time;durP1;ratioP1;P1;durP2;ratioP2;P2;SDS_P1;SDS_P2;PMS_P1;PMS_P2;Temp;Humidity;BMP_temperature;BMP_pressure;BME280_temperature;BME280_humidity;BME280_pressure;Samples;Min_cycle;Max_cycle;Signal;HPM_P1;HPM_P2
2021/06/21 00:00:25;;;;;;;17.05;15.50;;;;;;;14.62;92.69;99971.78;3606427;39;20044;-54
2021/06/21 00:02:53;;;;;;;19.95;18.08;;;;;;;14.66;96.88;99978.44;3606593;39;20133;-55
2021/06/21 00:05:21;;;;;;;18.60;16.77;;;;;;;14.53;92.50;99968.25;3606441;39;20052;-55
2021/06/21 00:07:49;;;;;;;19.17;17.48;;;;;;;14.49;91.12;99969.50;3606606;39;20055;-55
2021/06/21 00:10:18;;;;;;;20.20;18.30;;;;;;;14.52;93.79;99975.28;3606193;39;20060;-56
2021/06/21 00:12:46;;;;;;;19.23;17.38;;;;;;;14.45;93.29;99965.47;3606278;39;20052;-54
2021/06/21 00:15:17;;;;;;;18.70;16.90;;;;;;;14.35;93.40;99962.84;3606318;39;20048;-54
2021/06/21 00:17:46;;;;;;;19.02;17.23;;;;;;;14.41;94.36;99966.72;3605818;39;20040;-56
2021/06/21 00:20:16;;;;;;;20.85;18.88;;;;;;;14.36;94.46;99961.88;3606420;39;20135;-55
2021/06/21 00:22:44;;;;;;;18.83;17.02;;;;;;;14.20;91.58;99962.47;3605855;39;20051;-55
2021/06/21 00:25:13;;;;;;;18.75;17.00;;;;;;;14.17;92.31;99964.53;3606349;39;20372;-55
2021/06/21 00:27:41;;;;;;;19.13;17.35;;;;;;;14.20;92.41;99961.63;3605360;39;20055;-57
2021/06/21 00:30:11;;;;;;;19.50;17.60;;;;;;;14.13;90.83;99955.25;3606311;39;20060;-56
2021/06/21 00:32:43;;;;;;;19.35;17.45;;;;;;;14.09;91.18;99959.97;3605209;39;20051;-55
2021/06/21 00:35:11;;;;;;;19.17;17.35;;;;;;;14.01;90.66;99957.22;3604973;39;20059;-55
2021/06/21 00:37:39;;;;;;;19.05;17.25;;;;;;;14.06;91.22;99962.91;3606437;39;20051;-55
2021/06/21 00:40:09;;;;;;;20.23;18.33;;;;;;;14.06;93.15;99963.72;3606589;39;20080;-55
2021/06/21 00:42:40;;;;;;;19.33;17.50;;;;;;;14.01;92.31;99965.13;3605612;39;20105;-53
2021/06/21 00:45:08;;;;;;;20.30;18.35;;;;;;;13.88;91.26;99965.38;3605987;39;20059;-53
2021/06/21 00:47:35;;;;;;;19.17;17.38;;;;;;;13.93;93.50;99972.84;3606369;39;20039;-55
2021/06/21 00:50:03;;;;;;;18.90;17.10;;;;;;;13.90;93.52;99979.22;3605826;39;20055;-55
2021/06/21 00:52:31;;;;;;;18.60;16.80;;;;;;;13.92;95.03;99979.09;3606383;39;20043;-54
2021/06/21 00:55:01;;;;;;;20.17;18.25;;;;;;;13.86;94.09;99988.34;3606683;39;20055;-56
2021/06/21 00:57:32;;;;;;;18.35;16.65;;;;;;;13.79;92.98;100000.38;3606164;39;20044;-56
2021/06/21 01:00:08;;;;;;;21.45;19.00;;;;;;;13.78;95.01;99998.72;3613580;39;20052;-56
2021/06/21 01:02:37;;;;;;;19.77;17.92;;;;;;;13.91;97.73;99998.44;3606086;39;20060;-53
2021/06/21 01:05:10;;;;;;;20.83;18.83;;;;;;;13.84;95.27;100011.31;3605958;39;20051;-55
2021/06/21 01:07:38;;;;;;;21.87;19.67;;;;;;;13.94;97.08;100004.25;3606162;39;20428;-56
2021/06/21 01:10:08;;;;;;;20.30;18.30;;;;;;;13.98;97.91;99997.75;3605904;39;20465;-54
2021/06/21 01:12:44;;;;;;;20.83;18.73;;;;;;;13.98;99.15;100002.19;3605878;39;20037;-56
2021/06/21 01:15:14;;;;;;;19.92;17.92;;;;;;;13.96;99.57;100004.16;3605928;39;20168;-55
2021/06/21 01:17:57;;;;;;;20.08;18.17;;;;;;;14.01;99.59;100002.75;3605508;39;20043;-55
2021/06/21 01:20:59;;;;;;;19.60;17.80;;;;;;;13.93;96.22;100001.78;3605936;39;20070;-53
2021/06/21 01:24:05;;;;;;;20.15;17.88;;;;;;;14.04;96.30;99997.19;3605562;39;20040;-56
2021/06/21 01:26:49;;;;;;;20.88;18.85;;;;;;;14.20;98.81;100003.72;3605987;39;20132;-54
2021/06/21 01:29:26;;;;;;;18.95;17.15;;;;;;;14.18;97.78;100005.66;3605477;39;20420;-53
2021/06/21 01:32:06;;;;;;;18.60;16.80;;;;;;;14.31;99.43;100003.56;3605879;39;20068;-56
2021/06/21 01:34:37;;;;;;;18.33;16.52;;;;;;;14.38;99.84;100011.72;3607374;39;20040;-56
2021/06/21 01:37:06;;;;;;;19.63;17.73;;;;;;;14.42;99.83;100015.72;3607245;39;20080;-56
2021/06/21 01:39:34;;;;;;;21.17;19.10;;;;;;;14.51;100.00;100012.28;3607412;39;20052;-55
2021/06/21 01:42:10;;;;;;;20.83;18.75;;;;;;;14.58;100.00;100006.31;3607444;39;20424;-54
2021/06/21 01:44:47;;;;;;;20.15;18.10;;;;;;;14.59;97.96;100007.16;3607426;39;20055;-53
2021/06/21 01:47:17;;;;;;;20.45;18.38;;;;;;;14.69;96.23;99997.41;3607576;39;20227;-55
2021/06/21 01:49:48;;;;;;;18.45;16.63;;;;;;;14.76;95.74;100005.56;3607199;39;20129;-56
2021/06/21 01:52:18;;;;;;;18.10;16.30;;;;;;;14.84;95.79;100008.31;3607348;39;20044;-55
2021/06/21 01:54:55;;;;;;;19.52;17.75;;;;;;;14.92;96.50;100013.69;3606435;39;20059;-56
2021/06/21 01:57:27;;;;;;;18.73;16.95;;;;;;;15.04;97.57;100006.44;3607330;39;20062;-56
2021/06/21 01:59:55;;;;;;;18.42;16.65;;;;;;;15.23;95.44;100010.78;3607416;39;20043;-55
2021/06/21 02:02:24;;;;;;;18.58;16.80;;;;;;;15.49;94.16;100008.31;3607267;39;20066;-56
2021/06/21 02:04:54;;;;;;;19.20;17.20;;;;;;;15.66;93.93;100012.78;3607288;39;20432;-55
2021/06/21 02:07:24;;;;;;;21.25;19.17;;;;;;;15.83;96.05;100014.63;3607200;39;20039;-54
2021/06/21 02:09:53;;;;;;;20.35;18.48;;;;;;;15.86;97.91;100018.78;3607450;39;20101;-56
2021/06/21 02:12:25;;;;;;;20.92;19.05;;;;;;;15.97;97.14;100020.34;3607017;39;20095;-55
2021/06/21 02:14:55;;;;;;;21.37;19.27;;;;;;;16.06;97.67;100022.91;3606204;39;20336;-55
2021/06/21 02:17:26;;;;;;;19.15;17.45;;;;;;;16.08;99.26;100028.03;3607065;39;20439;-58
2021/06/21 02:19:55;;;;;;;17.27;15.68;;;;;;;16.08;97.55;100025.41;3607018;39;20440;-54
2021/06/21 02:22:24;;;;;;;17.27;15.65;;;;;;;16.16;96.41;100020.19;3607463;39;20055;-56
2021/06/21 02:24:52;;;;;;;18.17;16.48;;;;;;;16.19;96.83;100019.91;3607513;39;20066;-56
2021/06/21 02:27:21;;;;;;;19.95;18.10;;;;;;;16.29;95.35;100031.19;3605864;39;20293;-57
2021/06/21 02:29:49;;;;;;;20.70;18.83;;;;;;;16.33;96.67;100022.00;3606913;39;20055;-54
2021/06/21 02:32:17;;;;;;;21.25;19.35;;;;;;;16.39;96.76;100029.28;3607104;39;20128;-53
2021/06/21 02:34:45;;;;;;;22.30;20.30;;;;;;;16.53;97.26;100027.09;3607407;39;20422;-55
2021/06/21 02:37:12;;;;;;;22.83;20.58;;;;;;;16.56;98.20;100037.31;3605789;39;20052;-56
2021/06/21 02:39:39;;;;;;;21.60;19.60;;;;;;;16.50;98.16;100027.38;3607312;39;20083;-57
2021/06/21 02:42:07;;;;;;;20.52;18.73;;;;;;;16.53;97.58;100037.66;3607042;39;20085;-55
2021/06/21 02:44:35;;;;;;;18.58;16.70;;;;;;;16.60;96.95;100030.75;3606840;39;20048;-55
2021/06/21 02:47:03;;;;;;;23.33;21.13;;;;;;;16.73;97.02;100035.66;3606601;39;20416;-57
2021/06/21 02:49:32;;;;;;;22.70;20.60;;;;;;;16.88;96.60;100032.28;3607235;39;20047;-55
2021/06/21 02:52:14;;;;;;;28.35;25.65;;;;;;;17.01;96.56;100021.31;3607139;39;20056;-54
2021/06/21 02:55:08;;;;;;;26.55;24.10;;;;;;;17.03;97.33;100026.41;3607065;39;20067;-55
2021/06/21 02:58:09;;;;;;;23.13;20.92;;;;;;;17.30;95.97;100025.41;3607147;39;20059;-56
2021/06/21 03:00:40;;;;;;;24.08;21.88;;;;;;;17.53;93.88;100030.94;3606998;39;20055;-54
2021/06/21 03:03:09;;;;;;;26.50;24.10;;;;;;;17.73;94.57;100039.41;3606462;39;20046;-55
2021/06/21 03:05:39;;;;;;;25.77;23.38;;;;;;;17.85;92.31;100027.56;3606644;39;20051;-55
2021/06/21 03:08:11;;;;;;;27.55;24.88;;;;;;;17.97;93.69;100030.72;3606770;39;20052;-57
2021/06/21 03:10:39;;;;;;;27.90;25.13;;;;;;;18.00;94.29;100036.53;3606570;39;20044;-57
2021/06/21 03:13:08;;;;;;;25.67;23.08;;;;;;;17.91;95.56;100034.84;3605769;39;20059;-56
2021/06/21 03:15:36;;;;;;;26.17;23.75;;;;;;;17.92;95.22;100039.97;3605927;39;20046;-56
2021/06/21 03:18:05;;;;;;;27.90;25.02;;;;;;;17.94;95.43;100042.44;3606652;39;20056;-56
2021/06/21 03:20:33;;;;;;;28.63;26.08;;;;;;;17.88;95.34;100033.34;3606954;39;20439;-55
2021/06/21 03:23:03;;;;;;;29.67;26.83;;;;;;;17.84;95.91;100039.13;3606953;39;20056;-55
2021/06/21 03:25:35;;;;;;;28.58;25.98;;;;;;;17.74;95.96;100041.91;3606377;39;20047;-55
2021/06/21 03:28:11;;;;;;;24.70;22.50;;;;;;;17.82;96.55;100035.84;3604919;39;20065;-56
2021/06/21 03:30:43;;;;;;;26.85;24.48;;;;;;;17.80;97.28;100041.28;3606712;39;20073;-56
2021/06/21 03:33:10;;;;;;;24.45;22.25;;;;;;;17.83;97.54;100043.59;3606797;39;20083;-56
2021/06/21 03:35:38;;;;;;;23.35;21.25;;;;;;;17.81;99.28;100045.59;3606793;39;20043;-57
2021/06/21 03:38:20;;;;;;;23.90;21.77;;;;;;;17.86;98.94;100043.28;3606966;39;20132;-54
2021/06/21 03:40:55;;;;;;;22.17;20.17;;;;;;;18.02;97.32;100042.47;3606858;39;20055;-54
2021/06/21 03:43:25;;;;;;;22.10;20.15;;;;;;;18.19;95.58;100051.28;3606716;39;20040;-56
2021/06/21 03:45:55;;;;;;;25.80;23.42;;;;;;;18.26;95.69;100046.13;3604976;39;20047;-54
2021/06/21 03:48:24;;;;;;;23.48;21.38;;;;;;;18.52;93.88;100049.44;3606785;39;20430;-56
2021/06/21 03:50:51;;;;;;;24.08;21.98;;;;;;;18.78;94.75;100051.09;3606772;39;20050;-57
2021/06/21 03:53:22;;;;;;;26.50;24.17;;;;;;;18.70;94.20;100056.41;3606687;39;20418;-55
2021/06/21 03:55:49;;;;;;;28.80;26.23;;;;;;;18.66;96.08;100061.19;3606422;39;20059;-55
2021/06/21 03:58:17;;;;;;;25.05;22.88;;;;;;;18.83;96.08;100065.50;3606288;39;20056;-55
2021/06/21 04:00:45;;;;;;;26.27;23.75;;;;;;;19.06;91.88;100057.66;3606395;39;20054;-56
2021/06/21 04:03:13;;;;;;;25.02;22.83;;;;;;;19.06;94.13;100062.13;3606454;39;20048;-55
2021/06/21 04:05:41;;;;;;;25.60;23.20;;;;;;;18.98;95.78;100070.09;3606718;39;20067;-56
2021/06/21 04:08:10;;;;;;;34.13;30.55;;;;;;;18.90;95.43;100076.25;3606569;39;20074;-58
2021/06/21 04:10:42;;;;;;;45.30;36.28;;;;;;;19.04;93.75;100080.88;3606485;39;20107;-57
2021/06/21 04:13:17;;;;;;;28.67;25.63;;;;;;;19.13;92.97;100074.56;3605240;39;20060;-55
2021/06/21 04:15:45;;;;;;;23.48;21.27;;;;;;;19.32;92.53;100075.13;3605787;39;20328;-56
2021/06/21 04:18:16;;;;;;;18.73;17.02;;;;;;;19.56;88.47;100075.06;3606650;39;20062;-56
2021/06/21 04:20:46;;;;;;;16.95;15.45;;;;;;;19.86;85.94;100073.44;3606600;39;20098;-56
2021/06/21 04:23:15;;;;;;;14.98;13.43;;;;;;;20.15;80.97;100077.22;3605878;39;20044;-54
2021/06/21 04:25:42;;;;;;;13.02;11.82;;;;;;;20.48;79.33;100080.50;3606599;39;20063;-57
2021/06/21 04:28:10;;;;;;;12.13;10.23;;;;;;;20.72;78.31;100063.50;3606139;39;20067;-57
2021/06/21 04:30:38;;;;;;;13.35;10.43;;;;;;;20.87;77.48;100060.88;3606575;39;20059;-57
2021/06/21 04:33:06;;;;;;;13.18;11.52;;;;;;;21.06;76.53;100059.50;3606076;39;20052;-52
2021/06/21 04:35:33;;;;;;;18.35;15.07;;;;;;;21.26;75.79;100059.78;3606486;39;20055;-57
2021/06/21 04:38:01;;;;;;;10.73;9.73;;;;;;;21.47;74.35;100059.91;3606540;39;20139;-54
2021/06/21 04:40:32;;;;;;;11.00;9.13;;;;;;;21.62;74.51;100058.03;3606106;39;20063;-54
2021/06/21 04:42:59;;;;;;;11.07;9.70;;;;;;;21.78;73.13;100051.66;3606302;39;20036;-57
2021/06/21 04:45:27;;;;;;;9.25;8.45;;;;;;;21.95;74.21;100053.06;3606213;39;20051;-57
2021/06/21 04:47:58;;;;;;;9.85;8.85;;;;;;;22.07;71.67;100056.03;3606375;39;20420;-58
2021/06/21 04:50:26;;;;;;;10.75;9.07;;;;;;;22.22;71.18;100056.03;3606126;39;20055;-57
2021/06/21 04:52:53;;;;;;;10.35;8.52;;;;;;;22.47;71.23;100046.63;3606308;39;20063;-56
2021/06/21 04:55:23;;;;;;;9.02;8.13;;;;;;;22.48;70.90;100053.59;3606168;39;20147;-57
2021/06/21 04:57:52;;;;;;;9.80;8.48;;;;;;;22.62;71.86;100049.19;3606056;39;20071;-58
2021/06/21 05:00:24;;;;;;;13.13;11.07;;;;;;;22.77;69.79;100049.09;3606389;39;20320;-57
2021/06/21 05:02:51;;;;;;;10.75;9.35;;;;;;;22.71;73.10;100047.19;3606111;39;20051;-56
2021/06/21 05:05:20;;;;;;;10.50;7.18;;;;;;;22.79;70.00;100052.41;3605650;39;20132;-57
2021/06/21 05:07:49;;;;;;;8.30;7.47;;;;;;;22.88;69.52;100053.03;3605883;39;20059;-57
2021/06/21 05:10:18;;;;;;;10.23;8.18;;;;;;;22.98;68.58;100045.56;3606326;39;20051;-57
2021/06/21 05:12:47;;;;;;;8.15;7.35;;;;;;;23.05;68.95;100051.75;3605925;39;20047;-57
2021/06/21 05:15:16;;;;;;;9.13;8.10;;;;;;;23.20;68.04;100048.97;3606136;39;20047;-57
2021/06/21 05:17:46;;;;;;;7.50;6.80;;;;;;;23.24;71.05;100042.22;3606053;39;20059;-56
2021/06/21 05:20:14;;;;;;;8.90;7.18;;;;;;;23.48;70.80;100040.88;3605958;39;20162;-56
2021/06/21 05:22:42;;;;;;;10.52;7.63;;;;;;;23.59;67.39;100037.63;3606075;39;20059;-55
2021/06/21 05:25:10;;;;;;;8.73;6.93;;;;;;;23.74;66.67;100040.19;3605884;39;21089;-56
2021/06/21 05:27:37;;;;;;;8.80;7.43;;;;;;;23.88;68.00;100043.69;3605846;39;20286;-57
2021/06/21 05:30:06;;;;;;;11.68;10.45;;;;;;;24.07;67.76;100042.09;3605848;39;20048;-55
2021/06/21 05:32:35;;;;;;;99.57;61.45;;;;;;;24.16;64.78;100044.34;3605984;39;20052;-54
2021/06/21 05:35:05;;;;;;;24.60;17.00;;;;;;;24.22;67.83;100048.09;3605218;39;20051;-55
2021/06/21 05:37:32;;;;;;;10.57;7.90;;;;;;;24.20;66.53;100042.09;3605941;39;20405;-56
2021/06/21 05:40:00;;;;;;;12.48;7.47;;;;;;;24.28;64.57;100047.25;3605799;39;20040;-56
2021/06/21 05:42:27;;;;;;;8.30;7.45;;;;;;;24.28;64.79;100053.44;3605908;39;20818;-57
2021/06/21 05:44:55;;;;;;;7.32;6.63;;;;;;;24.45;67.60;100050.38;3605821;39;20542;-57
2021/06/21 05:47:24;;;;;;;7.40;6.70;;;;;;;24.48;64.27;100047.28;3605223;39;20051;-57
2021/06/21 05:49:51;;;;;;;7.90;7.10;;;;;;;24.55;63.36;100036.63;3605802;39;20076;-56
2021/06/21 05:52:19;;;;;;;9.23;7.50;;;;;;;24.70;63.21;100040.69;3605566;39;20428;-56
2021/06/21 05:54:46;;;;;;;7.55;6.85;;;;;;;24.76;62.06;100036.38;3605802;39;20056;-48
2021/06/21 05:57:13;;;;;;;9.77;7.00;;;;;;;24.97;61.16;100043.31;3605487;39;20081;-57
2021/06/21 05:59:42;;;;;;;8.50;7.00;;;;;;;24.90;60.25;100040.66;3605786;39;20059;-57
2021/06/21 06:02:09;;;;;;;7.63;6.93;;;;;;;25.01;62.15;100036.50;3605498;39;20044;-57
2021/06/21 06:04:37;;;;;;;8.07;7.28;;;;;;;25.08;62.00;100040.03;3605367;39;20044;-57
2021/06/21 06:07:05;;;;;;;15.10;11.65;;;;;;;25.29;61.13;100034.41;3605673;39;20148;-55
2021/06/21 06:09:33;;;;;;;9.38;7.70;;;;;;;25.31;60.21;100034.22;3605851;39;20063;-55
2021/06/21 06:12:01;;;;;;;8.23;7.43;;;;;;;25.41;59.67;100020.38;3605777;39;20043;-57
2021/06/21 06:14:29;;;;;;;7.45;6.50;;;;;;;25.69;59.40;100025.38;3604976;39;20408;-57
2021/06/21 06:16:56;;;;;;;7.80;7.00;;;;;;;25.78;60.87;100037.53;3604763;39;20040;-57
2021/06/21 06:19:24;;;;;;;8.13;6.75;;;;;;;25.78;61.02;100034.84;3605319;39;20047;-57
2021/06/21 06:21:51;;;;;;;6.60;6.00;;;;;;;26.19;63.87;100037.03;3607081;39;20104;-56
2021/06/21 06:24:18;;;;;;;7.63;6.93;;;;;;;26.28;61.07;100034.91;3606777;39;20048;-57
2021/06/21 06:26:46;;;;;;;8.23;7.40;;;;;;;26.20;58.48;100030.63;3607116;39;20117;-55
2021/06/21 06:29:15;;;;;;;8.10;7.38;;;;;;;26.35;61.00;100034.84;3607097;39;20040;-57
2021/06/21 06:31:46;;;;;;;8.60;7.60;;;;;;;26.31;57.68;100031.78;3606886;39;20051;-57
2021/06/21 06:34:15;;;;;;;7.35;6.65;;;;;;;26.74;58.80;100037.22;3606193;39;20139;-57
2021/06/21 06:36:42;;;;;;;8.52;7.72;;;;;;;26.75;57.78;100035.34;3607205;39;20431;-57
2021/06/21 06:39:09;;;;;;;7.47;6.68;;;;;;;27.02;56.15;100030.53;3604079;39;20086;-56
2021/06/21 06:41:37;;;;;;;6.63;5.55;;;;;;;26.96;54.28;100036.78;3607008;39;20055;-58
2021/06/21 06:44:06;;;;;;;10.95;6.75;;;;;;;27.25;54.52;100029.84;3607029;39;20052;-57
2021/06/21 06:46:33;;;;;;;7.43;6.72;;;;;;;27.22;55.37;100024.97;3607345;39;20047;-57
2021/06/21 06:49:02;;;;;;;8.88;6.57;;;;;;;27.41;55.80;100026.56;3606930;39;20148;-57
2021/06/21 06:51:35;;;;;;;17.27;13.63;;;;;;;27.46;54.91;100026.72;3607089;39;20058;-55
2021/06/21 06:54:05;;;;;;;49.22;29.48;;;;;;;27.89;54.60;100030.31;3607368;39;20051;-55
2021/06/21 06:59:19;;;;;;;7.55;6.43;;;;;;;28.01;52.89;100028.44;3606945;39;20058;-57
2021/06/21 07:01:46;;;;;;;6.30;5.65;;;;;;;28.13;52.80;100023.13;3606975;39;20326;-57
2021/06/21 07:04:14;;;;;;;5.47;4.68;;;;;;;27.84;53.22;100027.47;3606952;39;20063;-57
2021/06/21 07:06:41;;;;;;;6.97;4.72;;;;;;;28.23;53.58;100026.88;3606402;39;20043;-56
2021/06/21 07:09:09;;;;;;;8.20;5.40;;;;;;;27.97;50.94;100032.66;3606777;39;20076;-57
2021/06/21 07:11:37;;;;;;;6.07;5.47;;;;;;;27.98;49.86;100037.81;3606946;39;20067;-54
2021/06/21 07:14:05;;;;;;;7.07;5.93;;;;;;;28.38;49.97;100037.19;3607036;39;20055;-57
2021/06/21 07:16:34;;;;;;;6.20;5.18;;;;;;;28.60;53.65;100044.72;3606924;39;20124;-56
2021/06/21 07:19:02;;;;;;;8.65;5.82;;;;;;;28.40;51.05;100045.88;3606898;39;20064;-55
2021/06/21 07:21:29;;;;;;;9.35;5.47;;;;;;;28.22;52.19;100043.25;3606921;39;20423;-57
2021/06/21 07:23:57;;;;;;;6.57;5.45;;;;;;;28.93;51.25;100030.66;3606767;39;20088;-56
2021/06/21 07:26:25;;;;;;;8.02;4.93;;;;;;;29.32;49.76;100037.16;3606622;39;20047;-57
2021/06/21 07:28:53;;;;;;;7.20;4.60;;;;;;;28.62;53.97;100031.84;3604644;39;20383;-55
2021/06/21 07:31:20;;;;;;;5.35;4.85;;;;;;;29.27;49.82;100027.09;3606523;39;20052;-57
2021/06/21 07:33:48;;;;;;;6.20;4.53;;;;;;;29.22;49.74;100026.19;3606793;39;20060;-56
2021/06/21 07:36:15;;;;;;;6.55;4.50;;;;;;;29.24;47.09;100024.88;3606405;39;20449;-57
2021/06/21 07:38:43;;;;;;;7.28;4.85;;;;;;;29.19;48.94;100021.25;3606763;39;20156;-57
2021/06/21 07:41:11;;;;;;;5.30;4.32;;;;;;;28.64;47.27;100027.06;3605729;39;20367;-55
2021/06/21 07:43:38;;;;;;;6.93;4.60;;;;;;;28.48;47.37;100025.88;3606542;39;20054;-57
2021/06/21 07:46:07;;;;;;;7.63;4.57;;;;;;;29.04;47.33;100027.16;3606381;39;20420;-56
2021/06/21 07:48:37;;;;;;;10.63;4.45;;;;;;;29.33;47.28;100028.00;3606811;39;20043;-57
2021/06/21 07:51:05;;;;;;;7.10;3.65;;;;;;;29.27;47.04;100031.66;3606919;39;20083;-57
2021/06/21 07:53:32;;;;;;;4.93;3.85;;;;;;;29.66;46.60;100023.81;3606276;39;20097;-57
2021/06/21 07:56:00;;;;;;;7.50;3.90;;;;;;;29.71;48.76;100019.34;3606037;39;20460;-57
2021/06/21 07:58:27;;;;;;;5.20;4.07;;;;;;;29.61;50.97;100031.81;3606493;39;20578;-56
2021/06/21 08:00:54;;;;;;;9.05;4.30;;;;;;;29.67;46.84;100026.25;3606267;39;20051;-56
2021/06/21 08:03:21;;;;;;;6.90;4.25;;;;;;;28.22;48.57;100027.09;3613555;39;20454;-57
2021/06/21 08:05:50;;;;;;;14.23;10.30;;;;;;;28.70;46.15;100031.50;3606481;39;20290;-57
2021/06/21 08:08:17;;;;;;;25.70;15.02;;;;;;;29.69;48.05;100031.44;3606772;39;20051;-57
2021/06/21 08:10:45;;;;;;;9.85;6.97;;;;;;;29.99;45.10;100028.47;3606505;39;20424;-56
2021/06/21 08:13:12;;;;;;;7.07;4.90;;;;;;;29.47;45.79;100025.84;3604387;39;20412;-57
2021/06/21 08:15:40;;;;;;;6.50;4.40;;;;;;;28.41;49.60;100044.81;3606409;39;20076;-57
2021/06/21 08:18:07;;;;;;;4.95;4.32;;;;;;;29.36;46.39;100029.41;3606416;39;20578;-54
2021/06/21 08:20:35;;;;;;;7.38;4.25;;;;;;;29.53;47.35;100027.59;3606385;39;20044;-55
2021/06/21 08:23:03;;;;;;;9.80;4.35;;;;;;;29.88;43.14;100032.88;3606494;39;20056;-58
2021/06/21 08:25:31;;;;;;;6.82;4.93;;;;;;;29.42;44.88;100021.19;3606429;39;20050;-56
2021/06/21 08:27:59;;;;;;;4.45;4.00;;;;;;;30.15;43.02;100022.31;3606810;39;20047;-56
2021/06/21 08:30:27;;;;;;;4.65;4.18;;;;;;;29.37;44.49;100026.47;3605961;39;20048;-55
2021/06/21 08:32:54;;;;;;;8.95;4.65;;;;;;;30.10;41.87;100023.00;3606429;39;20044;-57
2021/06/21 08:35:22;;;;;;;6.28;4.32;;;;;;;30.86;44.07;100019.88;3606446;39;20059;-57
2021/06/21 08:37:51;;;;;;;6.18;4.40;;;;;;;30.85;42.36;100015.53;3606208;39;20044;-57
2021/06/21 08:40:21;;;;;;;4.15;3.75;;;;;;;31.10;44.23;100015.06;3603936;39;20062;-57
2021/06/21 08:42:50;;;;;;;6.32;5.05;;;;;;;31.17;43.71;100012.16;3605554;39;20056;-57
2021/06/21 08:45:18;;;;;;;7.15;4.25;;;;;;;30.67;40.29;100013.94;3606308;39;20058;-57
2021/06/21 08:47:45;;;;;;;5.03;4.07;;;;;;;31.21;41.22;100018.69;3606177;39;20490;-57
2021/06/21 08:50:14;;;;;;;5.63;4.05;;;;;;;30.57;44.45;100014.56;3606005;39;20044;-57
2021/06/21 08:52:43;;;;;;;5.60;4.07;;;;;;;29.70;44.50;100009.63;3606946;39;20047;-57
2021/06/21 08:55:11;;;;;;;6.88;3.60;;;;;;;29.14;44.11;100007.69;3605869;39;20043;-57
2021/06/21 08:57:47;;;;;;;6.03;3.95;;;;;;;29.56;43.45;100006.41;3606219;39;20450;-57
2021/06/21 09:00:17;;;;;;;7.40;4.28;;;;;;;29.06;43.14;100001.63;3606376;39;20044;-57
2021/06/21 09:02:49;;;;;;;5.50;4.20;;;;;;;28.02;51.09;100017.47;3606102;39;20081;-57
2021/06/21 09:05:17;;;;;;;7.63;3.70;;;;;;;28.16;49.49;100010.03;3606024;39;20127;-56
2021/06/21 09:07:47;;;;;;;6.13;4.30;;;;;;;28.04;46.29;100010.00;3606163;39;20080;-55
2021/06/21 09:10:26;;;;;;;7.07;4.68;;;;;;;28.01;43.23;100006.94;3605972;39;20055;-57
2021/06/21 09:13:06;;;;;;;5.25;4.05;;;;;;;28.32;44.75;100005.81;3605754;39;20326;-56
2021/06/21 09:15:48;;;;;;;4.90;4.40;;;;;;;29.75;42.95;100004.31;3600984;39;20622;-57
2021/06/21 09:18:36;;;;;;;6.13;4.18;;;;;;;30.00;38.67;99997.72;3605712;39;20116;-56
2021/06/21 09:21:27;;;;;;;6.53;4.18;;;;;;;30.63;38.78;99996.59;3602675;39;20439;-57
2021/06/21 09:24:24;;;;;;;10.80;7.20;;;;;;;30.14;37.42;99993.66;3604072;39;20055;-58
2021/06/21 09:26:55;;;;;;;6.72;5.28;;;;;;;29.42;42.00;100001.50;3605055;39;20076;-56
2021/06/21 09:29:38;;;;;;;5.78;4.38;;;;;;;28.98;42.33;99993.91;3595565;40;20051;-57
2021/06/21 09:32:41;;;;;;;;;;;;;;;30.23;39.89;99996.78;3595944;40;20070;-56
2021/06/21 09:35:29;;;;;;;6.05;4.47;;;;;;;30.84;42.34;99998.50;3595627;40;19928;-57
2021/06/21 09:37:59;;;;;;;4.93;4.13;;;;;;;29.35;43.79;100009.75;3595600;40;20084;-57
2021/06/21 09:40:29;;;;;;;5.20;4.40;;;;;;;29.79;38.70;99999.25;3595457;39;20436;-57
2021/06/21 09:42:57;;;;;;;6.63;4.88;;;;;;;29.69;39.81;99999.09;3595542;39;20036;-58
2021/06/21 09:45:26;;;;;;;9.45;4.30;;;;;;;28.75;39.43;99991.22;3589236;39;20408;-57
2021/06/21 09:47:53;;;;;;;5.32;4.35;;;;;;;29.86;38.37;99989.13;3589071;40;20137;-58
2021/06/21 09:50:23;;;;;;;6.65;4.30;;;;;;;29.46;39.09;99989.19;3595667;39;20410;-57
2021/06/21 09:53:02;;;;;;;6.47;4.43;;;;;;;30.60;37.80;99992.47;3594206;40;20044;-57
2021/06/21 09:55:44;;;;;;;5.55;4.82;;;;;;;31.49;35.29;99991.47;3597148;39;20060;-57
2021/06/21 09:58:13;;;;;;;6.00;4.27;;;;;;;31.69;34.49;99996.28;3597533;39;20080;-58
2021/06/21 10:00:49;;;;;;;10.27;7.38;;;;;;;31.20;35.68;99988.16;3597207;39;20044;-58
2021/06/21 10:03:18;;;;;;;8.98;6.57;;;;;;;31.75;34.24;99986.31;3587158;39;20048;-57
2021/06/21 10:06:09;;;;;;;7.78;4.43;;;;;;;32.46;32.11;99981.50;3586972;40;20461;-57
2021/06/21 10:08:52;;;;;;;6.07;4.03;;;;;;;31.74;36.09;99963.88;3588738;39;20113;-57
2021/06/21 10:11:33;;;;;;;6.60;4.13;;;;;;;31.69;38.68;99982.75;3595244;40;20122;-57
2021/06/21 10:14:07;;;;;;;7.38;3.72;;;;;;;31.58;35.94;99967.50;3587093;40;20053;-57
2021/06/21 10:16:36;;;;;;;4.45;3.67;;;;;;;30.29;37.39;99966.94;3589064;39;20040;-57
2021/06/21 10:19:05;;;;;;;5.65;3.83;;;;;;;31.98;32.87;99966.25;3587106;40;20048;-57
2021/06/21 10:21:34;;;;;;;4.63;3.65;;;;;;;32.43;34.51;99971.22;3587294;40;20044;-57
2021/06/21 10:24:02;;;;;;;5.50;3.67;;;;;;;32.59;37.42;99964.00;3591900;40;20308;-57
2021/06/21 10:26:29;;;;;;;6.88;3.40;;;;;;;31.74;33.70;99966.56;3586942;40;20071;-58
2021/06/21 10:28:58;;;;;;;7.72;3.80;;;;;;;31.30;33.75;99958.56;3586939;40;20052;-58
2021/06/21 10:31:29;;;;;;;6.93;3.30;;;;;;;31.83;35.87;99962.34;3586681;40;20089;-57
2021/06/21 10:33:59;;;;;;;5.28;4.03;;;;;;;30.76;37.13;99963.03;3587139;40;20049;-57
2021/06/21 10:36:50;;;;;;;6.15;3.70;;;;;;;31.47;34.14;99961.16;3585805;40;20388;-56
2021/06/21 10:39:23;;;;;;;5.93;3.22;;;;;;;32.24;33.99;99961.88;3596109;40;20051;-56
2021/06/21 10:42:15;;;;;;;5.30;3.70;;;;;;;31.47;33.77;99952.25;3586909;40;20052;-57
2021/06/21 10:44:58;;;;;;;5.07;3.10;;;;;;;31.69;33.40;99941.38;3593123;40;20083;-57
2021/06/21 10:47:28;;;;;;;5.45;3.55;;;;;;;32.15;33.88;99961.53;3586859;40;20085;-58
2021/06/21 10:49:57;;;;;;;9.65;4.35;;;;;;;31.47;36.84;99961.16;3596828;40;20106;-57
2021/06/21 10:52:39;;;;;;;6.78;3.75;;;;;;;31.11;38.50;99946.44;3596502;39;20060;-57
2021/06/21 10:55:29;;;;;;;4.85;3.60;;;;;;;30.21;40.39;99943.06;3596708;39;20043;-56
2021/06/21 10:58:05;;;;;;;7.00;4.13;;;;;;;29.97;39.21;99936.19;3596421;39;20052;-58
2021/06/21 11:00:45;;;;;;;7.53;4.22;;;;;;;31.70;38.85;99943.00;3596647;39;20072;-59
2021/06/21 11:03:25;;;;;;;8.93;3.95;;;;;;;30.99;37.46;99940.34;3587728;40;20070;-58
2021/06/21 11:06:27;;;;;;;4.82;3.97;;;;;;;32.26;37.92;99951.59;3586646;40;20051;-57
2021/06/21 11:08:56;;;;;;;7.55;4.05;;;;;;;30.32;40.17;99949.44;3588223;40;20048;-56
2021/06/21 11:11:34;;;;;;;5.00;3.35;;;;;;;31.82;38.35;99947.19;3593422;39;20060;-55
2021/06/21 11:14:23;;;;;;;5.55;3.13;;;;;;;32.17;36.28;99934.19;3585317;40;20052;-56
2021/06/21 11:17:19;;;;;;;8.45;3.30;;;;;;;32.49;37.15;99942.28;3585573;40;20076;-57
2021/06/21 11:19:46;;;;;;;5.80;2.90;;;;;;;32.49;33.19;99943.09;3587520;40;20053;-57
2021/06/21 11:22:15;;;;;;;5.40;2.92;;;;;;;33.27;33.07;99936.91;3596749;39;20048;-58
2021/06/21 11:24:46;;;;;;;6.90;2.58;;;;;;;33.35;34.05;99942.63;3595494;40;20064;-57
2021/06/21 11:27:15;;;;;;;4.30;2.92;;;;;;;33.39;34.56;99949.13;3596522;40;20452;-57
2021/06/21 11:29:52;;;;;;;6.47;2.67;;;;;;;32.97;31.99;99941.16;3586673;40;20044;-57
2021/06/21 11:32:21;;;;;;;7.07;3.33;;;;;;;30.76;37.74;99950.31;3591213;40;20048;-57
2021/06/21 11:35:00;;;;;;;6.25;3.17;;;;;;;30.13;36.51;99935.38;3596224;39;20063;-58
2021/06/21 11:37:30;;;;;;;4.68;3.20;;;;;;;29.91;37.65;99948.78;3596792;39;20045;-58
2021/06/21 11:40:16;;;;;;;6.80;3.45;;;;;;;30.49;35.76;99944.81;3596068;39;20055;-57